Delta, LA

9:51 AM CDT on May 23, 2017 (GMT -0500)
Vicksburg Tallulah Regional | | Change Station
Active Advisory: Flood Warning

Elev 85 ft 32.35 °N, 91.03 °W | Updated 14 minutes ago

Overcast
Overcast
69 °F
Feels Like 69 °F
N
6
Wind Variable Wind from North

Today
High -- | Low -- °F
--% Chance of Precip.
Yesterday
High -- | Low -- °F
Precip. -- in
Pressure 29.81 in
Visibility 10.0 miles
Clouds Mostly Cloudy 1000 ft
Overcast 1400 ft
Dew Point 65 °F
Humidity 87%
Rainfall 0.33 in
Snow Depth Not available.
6:01 AM 8:00 PM
Waning Crescent, 7% visible
SPECI KTVR 231437Z AUTO 35005KT 10SM BKN010 OVC014 21/18 A2981 RMK AO2 CIG 008V012 T02060183
Pressure 29.81 in
Visibility 10.0 miles
Clouds Mostly Cloudy 1000 ft
Overcast 1400 ft
Dew Point 65 °F
Humidity 87%
Rainfall 0.33 in
Snow Depth Not available.
6:01 AM 8:00 PM
Waning Crescent, 7% visible
SPECI KTVR 231437Z AUTO 35005KT 10SM BKN010 OVC014 21/18 A2981 RMK AO2 CIG 008V012 T02060183

Get Your Daily Forecast Email!

Thanks for signing up!

Be on the lookout for a verification email in your inbox.

You'll start receiving severe weather alerts in your inbox..

×

10-Day Weather Forecast

Almanac

Astronomy

May. 23, 2017 Rise Set
Actual Time
Civil Twilight
Nautical Twilight
Astronomical Twilight
Moon
Length of Visible Light
Length of Day
Tomorrow will be .
, % of the Moon is Illuminated

Today's Extremes

State Highs State Lows

Community

WunderPhotos

Category 6

Welcome to Category 6. This is the collective home for Weather Underground's featured writeups by Dr. Jeff Masters (right), Bob Henson (left), Chris Burt, and other regular contributors.

Nearby

Air Quality

  Air Quality AQ Index Pollutant
Not available.

Snow Depth

Station Depth Elevation

Earthquake Activity

City Distance Mag. Time & Date
Minimum magnitude displayed is 2.5.

Coastal Water Temperatures

Place Temperature

Stations

Nearby Weather Stations

Station Location Temp. Windchill Dew Point Humidity Wind Precip. Elev Updated Type
                   

Watches & Warnings

Flood Warning
Issued: 8:28 PM CDT May. 22, 2017 – National Weather Service


The Flood Warning continues for
the Mississippi River at Vicksburg
* until Monday June 05.
* At 8:00 PM Monday the stage was 48.2 feet.
* Moderate flooding is occurring and moderate flooding is forecast.
* Flood stage is 43.0 feet.
* Forecast... the river was near crest this morning. The river may
drift upward a tenth or two between tonight and tomorrow. Beyond
tomorrow, the river will remain fairly flat for a couple of days
before any signifcant fall occurs.
* Impact... at 48.0 feet... culverts in south Vicksburg west of Highway
61 south are full. Low lying businesses near the Railroad begin to
take on water.


              Flood observed forecast 6 am crest
location stg stg day time Tue Wed Thu crest time date

Lower Mississippi River
Vicksburg 43 48.2 Mon 08 PM 48.3 48.2 48.1




Lat... Lon 3193 9129 3227 9105 3277 9123 3278 9101
      3226 9086 3187 9114